Time;durP1;ratioP1;P1;durP2;ratioP2;P2;SDS_P1;SDS_P2;PMS_P1;PMS_P2;Temp;Humidity;BMP_temperature;BMP_pressure;BME280_temperature;BME280_humidity;BME280_pressure;Samples;Min_cycle;Max_cycle;Signal;HPM_P1;HPM_P2
2021/07/08 00:02:08;;;;;;;5.37;4.97;;;18.70;99.90;;;;;;5014322;28;20402;-69
2021/07/08 00:04:37;;;;;;;5.60;5.10;;;18.60;99.90;;;;;;5014250;28;20175;-69
2021/07/08 00:07:04;;;;;;;4.40;4.10;;;18.60;99.90;;;;;;5014203;28;20406;-69
2021/07/08 00:09:29;;;;;;;6.20;5.60;;;18.50;99.90;;;;;;5014134;28;20418;-69
2021/07/08 00:11:55;;;;;;;5.20;4.70;;;18.50;99.90;;;;;;5014044;28;20413;-69
2021/07/08 00:14:20;;;;;;;5.00;4.60;;;18.50;99.90;;;;;;5013867;28;20175;-69
2021/07/08 00:16:46;;;;;;;5.53;5.13;;;18.50;99.90;;;;;;5013869;28;20200;-69
2021/07/08 00:19:11;;;;;;;5.10;4.70;;;18.40;99.90;;;;;;5013982;28;20249;-69
2021/07/08 00:21:39;;;;;;;5.40;4.97;;;18.50;99.90;;;;;;5013895;28;20218;-69
2021/07/08 00:24:05;;;;;;;5.83;5.23;;;18.40;99.90;;;;;;5013839;28;20167;-70
2021/07/08 00:26:31;;;;;;;6.67;6.07;;;18.40;99.90;;;;;;5013949;28;20422;-68
2021/07/08 00:28:57;;;;;;;5.73;5.33;;;18.30;99.90;;;;;;4995942;28;20813;-70
2021/07/08 00:31:22;;;;;;;5.20;4.87;;;18.30;99.90;;;;;;5013625;28;20222;-69
2021/07/08 00:33:48;;;;;;;6.17;5.63;;;18.30;99.90;;;;;;4996084;28;20920;-69
2021/07/08 00:36:14;;;;;;;6.57;6.00;;;18.20;99.90;;;;;;5013591;28;20297;-69
2021/07/08 00:38:39;;;;;;;5.47;5.07;;;18.20;99.90;;;;;;5013336;28;20430;-68
2021/07/08 00:41:05;;;;;;;6.50;6.00;;;18.10;99.90;;;;;;5013523;28;20178;-68
2021/07/08 00:43:31;;;;;;;5.93;5.53;;;18.10;99.90;;;;;;5013685;28;20172;-69
2021/07/08 00:45:58;;;;;;;6.63;6.13;;;18.10;99.90;;;;;;5013404;28;20634;-68
2021/07/08 00:48:24;;;;;;;6.83;6.17;;;18.10;99.90;;;;;;5013174;28;20880;-69
2021/07/08 00:50:50;;;;;;;5.53;5.03;;;18.10;99.90;;;;;;5013237;28;20795;-68
2021/07/08 00:53:18;;;;;;;6.87;6.27;;;18.10;99.90;;;;;;5013324;28;20407;-69
2021/07/08 00:55:48;;;;;;;7.30;6.00;;;18.00;99.90;;;;;;5012988;28;20224;-69
2021/07/08 00:58:16;;;;;;;7.17;6.57;;;18.00;99.90;;;;;;5012955;28;20425;-68
2021/07/08 01:00:42;;;;;;;8.13;6.50;;;18.00;99.90;;;;;;5013361;28;20409;-69
2021/07/08 01:03:09;;;;;;;7.27;6.67;;;18.00;99.90;;;;;;5013167;28;20410;-70
2021/07/08 01:05:42;;;;;;;7.87;7.17;;;17.90;99.90;;;;;;5013123;28;20865;-68
2021/07/08 01:08:10;;;;;;;7.10;6.60;;;17.90;99.90;;;;;;5013218;28;20435;-69
2021/07/08 01:10:36;;;;;;;7.13;5.97;;;17.90;99.90;;;;;;5012774;28;20436;-69
2021/07/08 01:13:02;;;;;;;7.60;7.00;;;17.90;99.90;;;;;;5013110;28;20899;-68
2021/07/08 01:15:28;;;;;;;7.90;7.30;;;17.80;99.90;;;;;;5012769;28;20194;-69
2021/07/08 01:17:54;;;;;;;7.77;7.07;;;17.80;99.90;;;;;;5012754;28;20404;-69
2021/07/08 01:20:21;;;;;;;7.80;7.20;;;17.70;99.90;;;;;;5013615;28;20457;-69
2021/07/08 01:22:48;;;;;;;7.50;6.90;;;17.70;99.90;;;;;;5012596;28;20556;-69
2021/07/08 01:25:17;;;;;;;8.70;8.00;;;17.70;99.90;;;;;;5012765;28;20821;-69
2021/07/08 01:27:43;;;;;;;8.27;7.53;;;17.70;99.90;;;;;;5012749;28;20563;-69
2021/07/08 01:30:11;;;;;;;8.63;7.93;;;17.60;99.90;;;;;;5012623;28;20507;-69
2021/07/08 01:32:37;;;;;;;8.47;7.70;;;17.60;99.90;;;;;;5012671;28;20405;-69
2021/07/08 01:35:07;;;;;;;8.10;7.50;;;17.60;99.90;;;;;;5013611;28;20672;-69
2021/07/08 01:37:33;;;;;;;8.07;7.40;;;17.60;99.90;;;;;;5013044;28;20401;-70
2021/07/08 01:40:10;;;;;;;7.40;6.90;;;17.70;99.90;;;;;;5002706;28;20886;-70
2021/07/08 01:42:37;;;;;;;8.03;7.43;;;17.70;99.90;;;;;;4975366;28;20418;-70
2021/07/08 01:45:07;;;;;;;8.00;7.40;;;17.60;99.90;;;;;;4993266;28;20440;-69
2021/07/08 01:47:33;;;;;;;8.60;8.00;;;17.60;99.90;;;;;;4992933;28;20474;-70
2021/07/08 01:49:59;;;;;;;8.50;7.80;;;17.60;99.90;;;;;;4992623;28;20438;-69
2021/07/08 01:52:25;;;;;;;8.37;7.47;;;17.60;99.90;;;;;;4992645;28;20180;-69
2021/07/08 01:54:50;;;;;;;8.37;7.67;;;17.60;99.90;;;;;;4992747;28;20242;-70
2021/07/08 01:57:16;;;;;;;8.17;7.53;;;17.50;99.90;;;;;;4993016;28;20970;-68
2021/07/08 01:59:41;;;;;;;8.40;7.70;;;17.50;99.90;;;;;;4992638;28;20226;-69
2021/07/08 02:02:07;;;;;;;11.57;8.80;;;17.50;99.90;;;;;;4992491;28;20253;-69
2021/07/08 02:04:33;;;;;;;9.63;8.73;;;17.50;99.90;;;;;;4992642;28;20800;-69
2021/07/08 02:06:59;;;;;;;8.20;7.60;;;17.40;99.90;;;;;;4991073;28;20414;-69
2021/07/08 02:09:24;;;;;;;8.97;8.27;;;17.40;99.90;;;;;;4974946;28;20194;-69
2021/07/08 02:11:50;;;;;;;8.40;7.70;;;17.40;99.90;;;;;;4992912;28;20178;-69
2021/07/08 02:14:15;;;;;;;8.10;7.50;;;17.40;99.90;;;;;;4993052;28;20210;-69
2021/07/08 02:16:41;;;;;;;8.83;8.20;;;17.40;99.90;;;;;;4992707;28;20209;-69
2021/07/08 02:19:07;;;;;;;8.90;8.10;;;17.50;99.90;;;;;;4992563;28;20276;-69
2021/07/08 02:21:33;;;;;;;9.20;8.50;;;17.50;99.90;;;;;;4992778;28;20168;-69
2021/07/08 02:23:59;;;;;;;10.33;9.17;;;17.50;99.90;;;;;;4993159;28;20410;-69
2021/07/08 02:26:24;;;;;;;9.07;8.37;;;17.40;99.90;;;;;;4993054;28;20225;-68
2021/07/08 02:28:51;;;;;;;12.50;8.43;;;17.50;99.90;;;;;;4992732;28;20221;-70
2021/07/08 02:31:17;;;;;;;8.10;7.40;;;17.50;99.90;;;;;;4992845;28;20410;-70
2021/07/08 02:33:42;;;;;;;9.50;8.80;;;17.50;99.90;;;;;;4993075;28;20405;-70
2021/07/08 02:36:08;;;;;;;9.10;8.20;;;17.50;99.90;;;;;;4992543;28;20464;-70
2021/07/08 02:38:34;;;;;;;10.50;7.87;;;17.50;99.90;;;;;;4992636;28;20196;-70
2021/07/08 02:41:01;;;;;;;9.83;8.93;;;17.50;99.90;;;;;;4992480;28;21084;-69
2021/07/08 02:43:26;;;;;;;9.53;8.57;;;17.60;99.90;;;;;;4990964;28;20850;-69
2021/07/08 02:45:52;;;;;;;8.60;7.90;;;17.60;99.90;;;;;;4992255;28;20502;-69
2021/07/08 02:48:20;;;;;;;8.37;7.67;;;17.60;99.90;;;;;;4991973;28;20694;-69
2021/07/08 02:50:48;;;;;;;7.80;7.03;;;17.60;99.90;;;;;;4974777;28;20370;-69
2021/07/08 02:53:14;;;;;;;8.67;7.93;;;17.60;99.90;;;;;;4992241;28;20413;-69
2021/07/08 02:55:40;;;;;;;8.33;7.63;;;17.50;99.90;;;;;;4992488;28;20511;-70
2021/07/08 02:58:06;;;;;;;9.60;6.73;;;17.50;99.90;;;;;;4992100;28;20432;-69
2021/07/08 03:00:32;;;;;;;6.60;6.10;;;17.50;99.90;;;;;;4991952;28;20410;-69
2021/07/08 03:02:57;;;;;;;7.13;6.50;;;17.60;99.90;;;;;;4992040;28;20193;-68
2021/07/08 03:05:23;;;;;;;7.80;7.20;;;17.60;99.90;;;;;;4991706;28;20179;-69
2021/07/08 03:07:50;;;;;;;7.00;6.40;;;17.60;99.90;;;;;;4991431;28;20611;-68
2021/07/08 03:10:19;;;;;;;7.53;6.97;;;17.60;99.90;;;;;;4991759;28;21041;-68
2021/07/08 03:12:45;;;;;;;7.40;6.80;;;17.60;99.90;;;;;;4991906;28;20402;-70
2021/07/08 03:15:12;;;;;;;7.10;6.50;;;17.60;99.90;;;;;;4991912;28;20883;-69
2021/07/08 03:17:39;;;;;;;6.90;6.30;;;17.60;99.90;;;;;;4991741;28;20826;-70
2021/07/08 03:20:07;;;;;;;6.63;6.23;;;17.60;99.90;;;;;;4993638;28;20441;-69
2021/07/08 03:22:33;;;;;;;6.80;6.33;;;17.60;99.90;;;;;;4995261;28;20906;-69
2021/07/08 03:24:58;;;;;;;7.30;6.70;;;17.60;99.90;;;;;;4995421;28;20426;-69
2021/07/08 03:27:24;;;;;;;6.33;5.73;;;17.60;99.90;;;;;;4995186;28;20169;-69
2021/07/08 03:29:49;;;;;;;7.20;6.60;;;17.60;99.90;;;;;;4995111;28;20195;-69
2021/07/08 03:32:15;;;;;;;6.17;5.70;;;17.60;99.90;;;;;;4995319;28;20229;-69
2021/07/08 03:34:41;;;;;;;6.50;5.93;;;17.60;99.90;;;;;;4994789;28;20195;-69
2021/07/08 03:37:06;;;;;;;6.70;6.20;;;17.60;99.90;;;;;;4995236;28;20210;-69
2021/07/08 03:39:31;;;;;;;6.60;6.10;;;17.60;99.90;;;;;;4994871;28;20261;-69
2021/07/08 03:41:57;;;;;;;5.80;5.30;;;17.70;99.90;;;;;;4994920;28;20702;-69
2021/07/08 03:44:22;;;;;;;6.20;5.80;;;17.80;99.90;;;;;;4995130;28;20168;-69
2021/07/08 03:46:48;;;;;;;5.83;5.43;;;17.70;99.90;;;;;;4994742;28;20172;-69
2021/07/08 03:49:15;;;;;;;6.90;5.50;;;17.80;99.90;;;;;;4994806;28;20759;-71
2021/07/08 03:51:40;;;;;;;6.20;5.70;;;17.90;99.90;;;;;;4994808;28;20522;-69
2021/07/08 03:54:06;;;;;;;5.70;5.30;;;17.90;99.90;;;;;;4994789;28;20553;-69
2021/07/08 03:56:31;;;;;;;6.10;5.70;;;17.90;99.90;;;;;;4994875;28;20203;-69
2021/07/08 03:58:57;;;;;;;6.30;5.80;;;18.00;99.90;;;;;;4994859;28;20282;-69
2021/07/08 04:01:22;;;;;;;5.50;5.10;;;18.00;99.90;;;;;;4977372;28;20262;-70
2021/07/08 04:03:48;;;;;;;5.67;5.20;;;18.00;99.90;;;;;;4994587;28;20175;-69
2021/07/08 04:06:13;;;;;;;5.80;5.30;;;18.10;99.90;;;;;;4994570;28;20256;-69
2021/07/08 04:08:39;;;;;;;5.83;5.20;;;18.10;99.90;;;;;;4993970;28;20287;-69
2021/07/08 04:11:05;;;;;;;5.80;5.20;;;18.10;99.90;;;;;;4994449;28;20185;-69
2021/07/08 04:13:30;;;;;;;5.63;5.00;;;18.20;99.90;;;;;;4994586;28;20195;-69
2021/07/08 04:15:56;;;;;;;5.97;5.47;;;18.30;99.90;;;;;;4994447;28;20249;-69
2021/07/08 04:18:21;;;;;;;5.40;5.00;;;18.30;99.90;;;;;;4994181;28;20200;-69
2021/07/08 04:20:47;;;;;;;5.90;5.33;;;18.40;99.90;;;;;;4994420;28;20179;-69
2021/07/08 04:23:14;;;;;;;5.63;5.23;;;18.40;99.90;;;;;;4994451;28;20855;-69
2021/07/08 04:25:40;;;;;;;5.90;5.23;;;18.50;99.90;;;;;;4994148;28;20829;-69
2021/07/08 04:28:06;;;;;;;5.70;5.03;;;18.80;99.90;;;;;;4994055;28;20439;-69
2021/07/08 04:30:34;;;;;;;5.40;5.00;;;19.30;99.90;;;;;;4993624;28;20413;-69
2021/07/08 04:32:59;;;;;;;5.73;5.20;;;19.40;99.90;;;;;;4994141;28;20417;-70
2021/07/08 04:35:38;;;;;;;6.30;5.70;;;19.20;99.90;;;;;;4993929;28;20470;-70
2021/07/08 04:38:05;;;;;;;5.80;5.33;;;19.20;99.90;;;;;;4994266;28;20697;-70
2021/07/08 04:40:31;;;;;;;6.23;5.83;;;19.00;99.90;;;;;;4994230;28;20408;-70
2021/07/08 04:42:57;;;;;;;5.70;5.30;;;19.10;99.90;;;;;;4993858;28;20421;-70
2021/07/08 04:45:22;;;;;;;5.90;5.40;;;18.90;99.90;;;;;;4993881;28;20220;-68
2021/07/08 04:47:48;;;;;;;5.27;4.83;;;19.20;99.90;;;;;;4993703;28;20771;-70
2021/07/08 04:50:17;;;;;;;6.83;6.17;;;19.50;99.90;;;;;;4993992;28;20177;-69
2021/07/08 04:52:44;;;;;;;6.30;5.80;;;19.60;99.90;;;;;;4993997;28;20777;-69
2021/07/08 04:55:10;;;;;;;7.37;5.60;;;19.60;99.90;;;;;;4993781;28;20470;-69
2021/07/08 04:57:37;;;;;;;5.63;5.13;;;19.60;99.90;;;;;;4993527;28;20894;-70
2021/07/08 05:00:08;;;;;;;5.40;5.00;;;19.70;99.90;;;;;;4993758;28;20625;-69
2021/07/08 05:02:35;;;;;;;6.47;5.37;;;20.00;99.90;;;;;;4993836;28;20849;-70
2021/07/08 05:05:01;;;;;;;6.40;5.90;;;20.30;99.90;;;;;;4993444;28;20415;-69
2021/07/08 05:07:26;;;;;;;5.77;5.33;;;20.60;99.90;;;;;;4967784;28;20449;-70
2021/07/08 05:09:52;;;;;;;7.07;5.17;;;21.40;99.90;;;;;;4974205;28;20200;-69
2021/07/08 05:12:17;;;;;;;4.40;4.10;;;22.10;99.90;;;;;;4973966;28;20186;-69
2021/07/08 05:14:42;;;;;;;5.10;4.70;;;22.30;99.90;;;;;;4992954;28;20572;-69
2021/07/08 05:17:08;;;;;;;5.50;4.30;;;22.80;99.90;;;;;;4993146;28;20228;-70
2021/07/08 05:19:33;;;;;;;4.77;4.37;;;22.30;99.90;;;;;;4993031;28;20296;-69
2021/07/08 05:22:00;;;;;;;6.23;5.67;;;22.20;99.90;;;;;;4993050;28;20174;-69
2021/07/08 05:24:26;;;;;;;4.10;3.80;;;22.40;99.90;;;;;;4992991;28;20251;-69
2021/07/08 05:26:53;;;;;;;9.00;4.90;;;22.20;99.90;;;;;;4996472;28;20461;-70
2021/07/08 05:29:22;;;;;;;8.13;5.07;;;21.60;99.90;;;;;;5012910;28;20491;-69
2021/07/08 05:31:48;;;;;;;11.87;5.20;;;21.40;99.90;;;;;;4995085;28;20423;-69
2021/07/08 05:34:13;;;;;;;6.53;5.63;;;21.40;99.90;;;;;;5012623;28;20425;-69
2021/07/08 05:36:39;;;;;;;5.73;5.33;;;21.80;99.90;;;;;;5012478;28;20450;-69
2021/07/08 05:39:05;;;;;;;5.80;5.20;;;21.50;99.90;;;;;;5012447;28;20201;-69
2021/07/08 05:41:31;;;;;;;5.30;4.70;;;21.50;99.90;;;;;;5012300;28;20169;-69
2021/07/08 05:43:56;;;;;;;7.20;5.40;;;21.40;99.90;;;;;;5011902;28;20405;-69
2021/07/08 05:46:22;;;;;;;5.10;4.37;;;21.20;99.90;;;;;;5012434;28;20178;-69
2021/07/08 05:48:48;;;;;;;6.33;4.10;;;21.00;99.90;;;;;;5012179;28;20200;-69
2021/07/08 05:51:14;;;;;;;4.67;4.27;;;20.80;99.90;;;;;;5012433;28;20404;-69
2021/07/08 05:53:39;;;;;;;5.13;4.03;;;20.60;99.90;;;;;;5012351;28;20421;-69
2021/07/08 05:56:05;;;;;;;5.13;4.63;;;20.70;99.90;;;;;;5012233;28;20211;-70
2021/07/08 05:58:31;;;;;;;4.60;4.20;;;20.60;99.90;;;;;;5012141;28;20193;-70
2021/07/08 06:00:57;;;;;;;8.70;5.60;;;20.50;99.90;;;;;;5012412;28;20410;-70
2021/07/08 06:03:23;;;;;;;5.17;3.90;;;20.70;99.90;;;;;;4994252;28;20222;-70
2021/07/08 06:05:49;;;;;;;5.07;4.03;;;20.60;99.90;;;;;;5012304;28;20804;-71
2021/07/08 06:08:15;;;;;;;4.80;3.70;;;20.40;99.90;;;;;;5011860;28;20513;-70
2021/07/08 06:10:43;;;;;;;7.63;4.00;;;20.60;99.90;;;;;;5011928;28;20632;-69
2021/07/08 06:13:09;;;;;;;4.30;3.90;;;20.70;99.90;;;;;;5012123;28;20178;-69
2021/07/08 06:15:35;;;;;;;4.23;3.83;;;20.80;99.90;;;;;;5012156;28;20528;-69
2021/07/08 06:18:01;;;;;;;4.20;3.90;;;20.70;99.90;;;;;;5012199;28;20938;-69
2021/07/08 06:20:27;;;;;;;4.07;3.70;;;20.50;99.90;;;;;;5011974;28;20441;-69
2021/07/08 06:22:53;;;;;;;4.03;3.73;;;20.50;99.90;;;;;;5012106;28;20240;-69
2021/07/08 06:25:19;;;;;;;5.63;5.07;;;20.50;99.90;;;;;;5011925;28;20178;-69
2021/07/08 06:27:44;;;;;;;5.27;4.27;;;20.50;99.90;;;;;;5011915;28;20410;-69
2021/07/08 06:30:10;;;;;;;5.70;5.20;;;20.30;99.90;;;;;;4994218;28;20801;-69
2021/07/08 06:32:36;;;;;;;9.17;5.07;;;20.30;99.90;;;;;;5011770;28;20573;-69
2021/07/08 06:35:05;;;;;;;7.77;5.27;;;20.30;99.90;;;;;;5011487;28;20538;-69
2021/07/08 06:37:31;;;;;;;6.37;5.70;;;20.30;99.90;;;;;;5011645;28;20160;-68
2021/07/08 06:39:56;;;;;;;5.20;4.80;;;20.30;99.90;;;;;;5011722;28;20774;-68
2021/07/08 06:42:22;;;;;;;9.60;5.17;;;20.20;99.90;;;;;;5011685;28;20225;-69
2021/07/08 06:44:47;;;;;;;7.17;4.97;;;20.10;99.90;;;;;;5011696;28;20169;-69
2021/07/08 06:47:15;;;;;;;6.60;4.57;;;20.20;99.90;;;;;;5011800;28;20171;-69
2021/07/08 06:49:40;;;;;;;14.10;5.57;;;20.30;99.90;;;;;;5011529;28;20218;-69
2021/07/08 06:52:06;;;;;;;5.53;4.87;;;20.20;99.90;;;;;;5011584;28;20899;-69
2021/07/08 06:54:33;;;;;;;6.43;4.63;;;20.20;99.90;;;;;;5014014;28;20203;-69
2021/07/08 06:56:58;;;;;;;5.97;3.60;;;20.20;99.90;;;;;;5015111;28;20450;-69
2021/07/08 06:59:24;;;;;;;5.57;4.60;;;20.20;99.90;;;;;;5015191;28;20936;-69
2021/07/08 07:01:50;;;;;;;4.70;4.30;;;20.10;99.90;;;;;;5015363;28;20170;-70
2021/07/08 07:04:15;;;;;;;4.60;4.20;;;20.10;99.90;;;;;;5015488;28;20173;-69
2021/07/08 07:06:41;;;;;;;7.63;4.70;;;20.00;99.90;;;;;;5015238;28;20173;-71
2021/07/08 07:09:06;;;;;;;3.70;3.40;;;20.00;99.90;;;;;;5015094;28;20569;-70
2021/07/08 07:11:32;;;;;;;6.23;3.63;;;20.00;99.90;;;;;;5015113;28;20183;-72
2021/07/08 07:13:58;;;;;;;4.40;4.10;;;20.10;99.90;;;;;;5015069;28;20189;-69
2021/07/08 07:16:23;;;;;;;5.17;4.77;;;20.10;99.90;;;;;;5008045;28;20210;-69
2021/07/08 07:18:49;;;;;;;5.90;4.20;;;20.00;99.90;;;;;;4995383;28;20678;-69
2021/07/08 07:21:14;;;;;;;5.27;4.77;;;20.00;99.90;;;;;;4995450;28;20167;-69
2021/07/08 07:23:42;;;;;;;5.20;4.80;;;20.00;99.90;;;;;;4995481;28;20175;-69
2021/07/08 07:26:07;;;;;;;5.27;4.50;;;19.90;99.90;;;;;;4995179;28;20225;-69
2021/07/08 07:28:33;;;;;;;9.07;5.30;;;19.90;99.90;;;;;;4995073;28;20459;-71
2021/07/08 07:30:58;;;;;;;5.40;4.90;;;19.90;99.90;;;;;;4995035;28;20172;-71
2021/07/08 07:33:24;;;;;;;4.63;4.23;;;19.90;99.90;;;;;;4995125;28;20198;-71
2021/07/08 07:35:49;;;;;;;5.17;4.77;;;19.90;99.90;;;;;;5002524;28;20749;-70
2021/07/08 07:38:16;;;;;;;4.70;4.30;;;19.90;99.90;;;;;;4994591;28;20207;-71
2021/07/08 07:40:42;;;;;;;8.20;4.73;;;19.90;99.90;;;;;;4995016;28;20186;-72
2021/07/08 07:43:09;;;;;;;5.43;4.40;;;19.90;99.90;;;;;;4994875;28;20400;-70
2021/07/08 07:45:34;;;;;;;7.83;4.23;;;19.90;99.90;;;;;;4993669;28;20929;-70
2021/07/08 07:48:00;;;;;;;5.10;4.60;;;19.90;99.90;;;;;;4990612;28;20560;-70
2021/07/08 07:50:30;;;;;;;5.33;3.93;;;19.90;99.90;;;;;;4988053;28;20204;-70
2021/07/08 07:52:56;;;;;;;4.20;3.83;;;19.90;99.90;;;;;;4992215;28;20173;-70
2021/07/08 07:55:26;;;;;;;4.63;4.07;;;19.90;99.90;;;;;;4983894;28;20497;-70
2021/07/08 07:57:52;;;;;;;4.47;4.07;;;19.90;99.90;;;;;;4984029;28;20547;-71
2021/07/08 08:00:17;;;;;;;6.53;4.00;;;19.90;99.90;;;;;;4975149;28;20417;-71
2021/07/08 08:02:43;;;;;;;3.33;3.07;;;19.90;99.90;;;;;;4991273;28;20188;-71
2021/07/08 08:05:21;;;;;;;3.30;3.10;;;19.90;99.90;;;;;;4981497;28;20636;-71
2021/07/08 08:10:31;;;;;;;4.30;3.90;;;20.00;99.90;;;;;;4975168;28;20536;-71
2021/07/08 08:12:58;;;;;;;4.67;4.27;;;20.00;99.90;;;;;;4975578;28;20922;-71
2021/07/08 08:15:24;;;;;;;5.07;4.57;;;20.00;99.90;;;;;;5002165;28;20756;-71
2021/07/08 08:17:49;;;;;;;4.73;4.30;;;20.10;99.90;;;;;;4998968;28;20433;-71
2021/07/08 08:20:15;;;;;;;5.70;5.20;;;20.10;99.90;;;;;;4993632;28;20255;-71
2021/07/08 08:22:42;;;;;;;4.80;4.40;;;20.10;99.90;;;;;;4993939;28;20592;-71
2021/07/08 08:25:10;;;;;;;4.40;4.07;;;20.10;99.90;;;;;;4974810;28;20178;-71
2021/07/08 08:27:37;;;;;;;4.77;4.20;;;20.20;99.90;;;;;;4975282;28;20408;-71
2021/07/08 08:30:04;;;;;;;4.23;3.93;;;20.20;99.90;;;;;;4993934;28;20490;-71
2021/07/08 08:32:29;;;;;;;4.60;3.80;;;20.20;99.90;;;;;;4993758;28;20782;-71
2021/07/08 08:34:55;;;;;;;6.37;4.73;;;20.10;99.90;;;;;;4993406;28;20507;-71
2021/07/08 08:37:21;;;;;;;6.33;4.33;;;20.10;99.90;;;;;;5007083;28;20197;-71
2021/07/08 08:39:46;;;;;;;4.13;3.83;;;20.10;99.90;;;;;;4994459;28;20543;-71
2021/07/08 08:42:14;;;;;;;4.30;3.90;;;20.20;99.90;;;;;;4993910;28;20443;-70
2021/07/08 08:44:39;;;;;;;5.23;4.27;;;20.20;99.90;;;;;;4993785;28;20399;-70
2021/07/08 08:47:10;;;;;;;4.70;3.93;;;20.10;99.90;;;;;;4976111;28;20482;-71
2021/07/08 08:49:38;;;;;;;4.90;4.27;;;20.10;99.90;;;;;;4995977;28;20294;-71
2021/07/08 08:52:09;;;;;;;7.83;4.50;;;20.00;99.90;;;;;;5013300;28;20413;-70
2021/07/08 08:54:35;;;;;;;4.80;3.80;;;20.00;99.90;;;;;;5003942;28;20492;-72
2021/07/08 08:57:02;;;;;;;5.90;4.43;;;20.10;99.90;;;;;;4992450;28;20457;-72
2021/07/08 08:59:27;;;;;;;4.83;4.40;;;20.10;99.90;;;;;;4994711;28;20470;-72
2021/07/08 09:02:13;;;;;;;6.07;4.30;;;20.20;99.90;;;;;;4989748;28;20931;-72
2021/07/08 09:04:38;;;;;;;3.70;3.40;;;20.20;99.90;;;;;;4974245;28;20177;-72
2021/07/08 09:07:25;;;;;;;4.40;4.00;;;20.30;99.90;;;;;;4974086;28;20497;-71
2021/07/08 09:09:57;;;;;;;5.60;3.23;;;20.50;99.90;;;;;;4973987;28;20198;-71
2021/07/08 09:12:24;;;;;;;4.23;3.80;;;20.50;99.90;;;;;;4998790;28;20431;-72
2021/07/08 09:14:51;;;;;;;4.90;4.50;;;20.50;99.90;;;;;;5002161;28;20419;-71
2021/07/08 09:17:22;;;;;;;4.83;4.43;;;20.50;99.90;;;;;;4980150;28;20520;-71
2021/07/08 09:19:49;;;;;;;5.17;4.60;;;20.50;99.90;;;;;;4993067;28;20431;-71
2021/07/08 09:22:27;;;;;;;5.20;4.30;;;20.50;99.90;;;;;;4985585;28;20448;-71
2021/07/08 09:24:53;;;;;;;4.20;3.83;;;20.60;99.90;;;;;;4982410;28;20417;-71
2021/07/08 09:27:25;;;;;;;4.03;3.73;;;20.90;99.90;;;;;;4992512;28;20447;-71
2021/07/08 09:29:51;;;;;;;3.60;3.30;;;21.10;99.90;;;;;;5001267;28;20199;-71
2021/07/08 09:32:20;;;;;;;6.93;3.13;;;21.30;99.90;;;;;;5008264;28;20418;-70
2021/07/08 09:34:50;;;;;;;3.23;3.00;;;21.70;99.90;;;;;;5012214;28;20536;-70
2021/07/08 09:37:17;;;;;;;4.67;2.83;;;22.00;99.90;;;;;;5010488;28;20412;-72
2021/07/08 09:39:43;;;;;;;4.67;3.50;;;22.20;99.90;;;;;;4994218;28;20456;-71
2021/07/08 09:42:11;;;;;;;2.60;2.40;;;22.10;99.90;;;;;;4992355;28;20426;-71
2021/07/08 09:44:37;;;;;;;3.33;2.90;;;21.90;99.90;;;;;;4984732;28;20442;-71
2021/07/08 09:47:04;;;;;;;2.83;2.63;;;22.20;99.90;;;;;;4979842;28;20424;-71
2021/07/08 09:49:30;;;;;;;3.33;2.63;;;22.10;99.90;;;;;;4992261;28;20199;-71
2021/07/08 09:51:56;;;;;;;3.60;2.73;;;22.10;99.90;;;;;;4987280;28;20436;-71
2021/07/08 09:54:45;;;;;;;2.80;2.60;;;22.10;99.90;;;;;;4992420;28;20414;-70
2021/07/08 09:57:33;;;;;;;4.67;3.10;;;21.90;99.90;;;;;;4992215;28;20425;-71
2021/07/08 09:59:59;;;;;;;2.97;2.17;;;21.80;99.90;;;;;;4987585;28;20828;-71
2021/07/08 10:02:33;;;;;;;3.10;2.80;;;21.80;99.90;;;;;;4999154;28;20433;-71
2021/07/08 10:05:02;;;;;;;2.73;2.20;;;22.00;99.90;;;;;;5009138;28;20419;-71
2021/07/08 10:07:28;;;;;;;4.27;2.70;;;22.10;99.90;;;;;;4992150;28;20713;-71
2021/07/08 10:09:54;;;;;;;3.03;2.53;;;22.20;99.90;;;;;;4992077;28;20463;-71
2021/07/08 10:12:21;;;;;;;2.60;2.40;;;22.30;99.90;;;;;;4992745;28;20877;-71
2021/07/08 10:14:50;;;;;;;3.00;2.70;;;22.40;99.90;;;;;;4992128;28;20177;-71
2021/07/08 10:17:19;;;;;;;3.03;2.57;;;22.20;99.90;;;;;;4991901;28;20421;-71
2021/07/08 10:19:46;;;;;;;6.23;3.27;;;22.20;99.90;;;;;;5006464;28;21724;-71
2021/07/08 10:22:12;;;;;;;2.80;2.60;;;22.10;99.90;;;;;;4992300;28;20453;-71
2021/07/08 10:24:38;;;;;;;4.07;3.33;;;22.00;99.90;;;;;;4992505;28;20776;-71
2021/07/08 10:27:06;;;;;;;4.23;2.57;;;21.90;99.90;;;;;;4975598;28;20193;-72
2021/07/08 10:29:33;;;;;;;3.33;3.13;;;21.90;99.90;;;;;;4995235;28;20273;-71
2021/07/08 10:31:59;;;;;;;2.70;2.50;;;21.90;99.90;;;;;;4995758;28;20455;-71
2021/07/08 10:34:24;;;;;;;3.00;2.70;;;21.80;99.90;;;;;;4996488;28;20438;-71
2021/07/08 10:36:54;;;;;;;2.80;2.10;;;21.80;99.90;;;;;;4996276;28;20474;-71
2021/07/08 10:39:21;;;;;;;4.57;2.57;;;21.70;99.90;;;;;;5002997;28;20590;-71
2021/07/08 10:41:53;;;;;;;2.87;2.53;;;21.90;99.90;;;;;;5003803;28;20474;-71
2021/07/08 10:44:33;;;;;;;2.70;2.50;;;21.90;99.90;;;;;;4995790;28;20415;-71
2021/07/08 10:46:59;;;;;;;3.10;2.53;;;22.00;99.90;;;;;;4998652;28;20411;-71
2021/07/08 10:49:40;;;;;;;4.83;2.90;;;22.10;99.90;;;;;;5015711;28;20428;-71
2021/07/08 10:52:11;;;;;;;3.67;2.77;;;21.90;99.90;;;;;;5015521;28;20667;-71
2021/07/08 10:54:45;;;;;;;3.13;2.40;;;21.70;99.90;;;;;;4995355;28;20413;-72
2021/07/08 10:57:35;;;;;;;3.30;3.00;;;21.60;99.90;;;;;;4995522;28;20832;-72
2021/07/08 11:00:01;;;;;;;4.13;2.57;;;21.70;99.90;;;;;;4995628;28;20520;-72
2021/07/08 11:02:47;;;;;;;2.70;2.50;;;21.50;99.90;;;;;;4995270;28;20416;-72
2021/07/08 11:05:14;;;;;;;3.30;2.80;;;21.50;99.90;;;;;;4995586;28;20174;-71
2021/07/08 11:07:46;;;;;;;5.90;2.90;;;21.50;99.90;;;;;;4995370;28;20506;-72
2021/07/08 11:10:13;;;;;;;3.13;2.83;;;21.40;99.90;;;;;;4992875;28;20967;-72
2021/07/08 11:12:40;;;;;;;2.77;2.50;;;21.50;99.90;;;;;;4977011;28;20433;-72
2021/07/08 11:15:07;;;;;;;6.97;3.47;;;21.60;99.90;;;;;;4982974;28;20614;-72
2021/07/08 11:17:39;;;;;;;3.40;2.80;;;21.60;99.90;;;;;;4975729;28;20425;-72
2021/07/08 11:20:32;;;;;;;6.00;2.90;;;21.60;99.90;;;;;;4976188;28;20410;-72
2021/07/08 11:23:39;;;;;;;5.83;3.43;;;21.80;99.90;;;;;;4975757;28;20402;-72
2021/07/08 11:26:06;;;;;;;3.00;2.70;;;21.80;99.90;;;;;;4975574;28;20405;-69
2021/07/08 11:28:32;;;;;;;6.67;3.47;;;21.90;99.90;;;;;;5002074;28;20440;-71
2021/07/08 11:31:00;;;;;;;3.10;2.90;;;21.80;99.90;;;;;;4989893;28;20422;-71
2021/07/08 11:33:26;;;;;;;7.43;3.03;;;21.70;99.90;;;;;;5014427;28;20504;-71
2021/07/08 11:35:58;;;;;;;4.20;3.33;;;21.70;99.90;;;;;;5014160;28;21223;-71
2021/07/08 11:38:25;;;;;;;3.80;3.00;;;21.80;99.90;;;;;;5014270;28;20420;-71
2021/07/08 11:40:53;;;;;;;4.50;3.00;;;21.90;99.90;;;;;;4997336;28;20521;-71
2021/07/08 11:43:27;;;;;;;4.50;2.83;;;21.90;99.90;;;;;;4976367;28;20470;-70
2021/07/08 11:45:55;;;;;;;3.03;2.73;;;22.00;99.90;;;;;;4994670;28;20415;-70
2021/07/08 11:48:24;;;;;;;9.17;3.50;;;22.10;99.90;;;;;;4993388;28;20466;-70
2021/07/08 11:50:50;;;;;;;3.37;3.07;;;22.10;99.90;;;;;;4985552;28;20435;-70
2021/07/08 11:53:18;;;;;;;3.30;3.10;;;22.00;99.90;;;;;;4978415;28;20466;-70
2021/07/08 11:55:49;;;;;;;4.40;3.40;;;22.10;99.90;;;;;;4988393;28;20206;-70
2021/07/08 11:58:21;;;;;;;3.00;2.70;;;22.00;99.90;;;;;;4994159;28;20497;-71
2021/07/08 12:00:48;;;;;;;4.50;3.63;;;21.80;99.90;;;;;;4997163;28;20507;-71
2021/07/08 12:03:32;;;;;;;3.63;3.33;;;21.80;99.90;;;;;;5004675;28;20409;-71
2021/07/08 12:06:01;;;;;;;3.03;2.50;;;21.80;99.90;;;;;;4994457;28;20415;-71
2021/07/08 12:08:29;;;;;;;3.80;2.90;;;21.80;99.90;;;;;;4993407;28;20451;-70
2021/07/08 12:10:57;;;;;;;3.70;3.10;;;21.60;99.90;;;;;;4994192;28;20421;-71
2021/07/08 12:13:23;;;;;;;3.23;2.80;;;21.60;99.90;;;;;;4993947;28;20423;-71
2021/07/08 12:15:49;;;;;;;3.77;2.93;;;21.50;99.90;;;;;;4993929;28;20991;-71
2021/07/08 12:18:14;;;;;;;3.20;3.00;;;21.50;99.90;;;;;;4993889;28;20499;-71
2021/07/08 12:20:47;;;;;;;3.83;3.47;;;21.50;99.90;;;;;;4994170;28;20166;-71
2021/07/08 12:23:14;;;;;;;3.67;3.20;;;21.60;99.90;;;;;;4994089;28;20221;-71
2021/07/08 12:25:39;;;;;;;4.87;3.30;;;21.70;99.90;;;;;;4994024;28;20421;-71
2021/07/08 12:28:05;;;;;;;3.60;3.30;;;21.60;99.90;;;;;;4993938;28;20425;-71
2021/07/08 12:30:31;;;;;;;13.43;11.03;;;21.50;99.90;;;;;;5001989;28;20188;-71
2021/07/08 12:33:04;;;;;;;4.07;3.67;;;21.50;99.90;;;;;;5006634;28;20172;-72
2021/07/08 12:35:41;;;;;;;4.83;4.43;;;21.40;99.90;;;;;;5010458;28;20836;-71
2021/07/08 12:38:07;;;;;;;3.73;3.40;;;21.30;99.90;;;;;;4999355;28;20432;-71
2021/07/08 12:40:33;;;;;;;6.43;3.50;;;21.30;99.90;;;;;;4999103;28;20420;-71
2021/07/08 12:43:09;;;;;;;5.10;3.77;;;21.20;99.90;;;;;;4993497;28;20416;-71
2021/07/08 12:45:36;;;;;;;3.63;3.33;;;21.30;99.90;;;;;;4976788;28;20412;-71
2021/07/08 12:48:03;;;;;;;3.13;2.93;;;21.40;99.90;;;;;;5004366;28;20506;-71
2021/07/08 12:50:34;;;;;;;4.00;3.70;;;21.30;99.90;;;;;;5001823;28;20863;-72